sensor_id;sensor_type;location;lat;lon;timestamp;pressure;altitude;pressure_sealevel;temperature;humidity
9139;BME280;4604;48.616;9.548;2024-03-06T00:00:03;96919.28;;;5.84;100.00
9139;BME280;4604;48.616;9.548;2024-03-06T00:02:40;96846.97;;;5.33;100.00
9139;BME280;4604;48.616;9.548;2024-03-06T00:05:16;96937.94;;;5.79;100.00
9139;BME280;4604;48.616;9.548;2024-03-06T00:08:00;96834.44;;;5.25;100.00
9139;BME280;4604;48.616;9.548;2024-03-06T00:18:01;96939.50;;;5.82;100.00
9139;BME280;4604;48.616;9.548;2024-03-06T00:20:35;96855.31;;;5.38;100.00
9139;BME280;4604;48.616;9.548;2024-03-06T00:23:02;96934.16;;;5.83;100.00
9139;BME280;4604;48.616;9.548;2024-03-06T00:25:29;96927.97;;;5.84;100.00
9139;BME280;4604;48.616;9.548;2024-03-06T00:27:55;96933.31;;;5.83;100.00
9139;BME280;4604;48.616;9.548;2024-03-06T00:30:24;96897.25;;;5.62;100.00
9139;BME280;4604;48.616;9.548;2024-03-06T00:32:51;96929.63;;;5.85;100.00
9139;BME280;4604;48.616;9.548;2024-03-06T00:35:18;96940.72;;;5.89;100.00
9139;BME280;4604;48.616;9.548;2024-03-06T00:37:45;96934.88;;;5.85;100.00
9139;BME280;4604;48.616;9.548;2024-03-06T00:40:15;96941.28;;;5.81;100.00
9139;BME280;4604;48.616;9.548;2024-03-06T00:42:41;96949.75;;;5.85;100.00
9139;BME280;4604;48.616;9.548;2024-03-06T00:45:11;96905.41;;;5.57;100.00
9139;BME280;4604;48.616;9.548;2024-03-06T00:47:37;96949.97;;;5.82;100.00
9139;BME280;4604;48.616;9.548;2024-03-06T00:50:06;96949.88;;;5.83;100.00
9139;BME280;4604;48.616;9.548;2024-03-06T00:52:33;96942.22;;;5.80;100.00
9139;BME280;4604;48.616;9.548;2024-03-06T00:55:11;96896.31;;;5.50;100.00
9139;BME280;4604;48.616;9.548;2024-03-06T00:57:41;96912.94;;;5.62;100.00
9139;BME280;4604;48.616;9.548;2024-03-06T01:00:19;96905.00;;;5.64;100.00
9139;BME280;4604;48.616;9.548;2024-03-06T01:03:11;96867.34;;;5.41;100.00
9139;BME280;4604;48.616;9.548;2024-03-06T01:05:45;96917.63;;;5.70;100.00
9139;BME280;4604;48.616;9.548;2024-03-06T01:08:54;96946.84;;;5.76;100.00
9139;BME280;4604;48.616;9.548;2024-03-06T01:15:26;96937.19;;;5.77;100.00
9139;BME280;4604;48.616;9.548;2024-03-06T01:17:54;96910.09;;;5.65;100.00
9139;BME280;4604;48.616;9.548;2024-03-06T01:20:23;96849.31;;;5.25;100.00
9139;BME280;4604;48.616;9.548;2024-03-06T01:23:01;96903.84;;;5.55;100.00
9139;BME280;4604;48.616;9.548;2024-03-06T01:25:34;96903.34;;;5.50;100.00
9139;BME280;4604;48.616;9.548;2024-03-06T01:28:11;96871.78;;;5.27;100.00
9139;BME280;4604;48.616;9.548;2024-03-06T01:30:44;96865.31;;;5.20;100.00
9139;BME280;4604;48.616;9.548;2024-03-06T01:33:19;96860.81;;;5.22;100.00
9139;BME280;4604;48.616;9.548;2024-03-06T01:35:47;96868.03;;;5.19;100.00
9139;BME280;4604;48.616;9.548;2024-03-06T01:38:20;96947.72;;;5.64;100.00
9139;BME280;4604;48.616;9.548;2024-03-06T01:40:48;96884.69;;;5.18;100.00
9139;BME280;4604;48.616;9.548;2024-03-06T01:43:22;96901.41;;;5.28;100.00
9139;BME280;4604;48.616;9.548;2024-03-06T01:45:53;96884.91;;;5.14;100.00
9139;BME280;4604;48.616;9.548;2024-03-06T01:48:23;96927.31;;;5.44;100.00
9139;BME280;4604;48.616;9.548;2024-03-06T01:50:52;96929.00;;;5.45;100.00
9139;BME280;4604;48.616;9.548;2024-03-06T01:53:21;96946.25;;;5.60;100.00
9139;BME280;4604;48.616;9.548;2024-03-06T01:55:48;96933.81;;;5.51;100.00
9139;BME280;4604;48.616;9.548;2024-03-06T01:58:15;96947.22;;;5.59;100.00
9139;BME280;4604;48.616;9.548;2024-03-06T02:00:42;96933.69;;;5.52;100.00
9139;BME280;4604;48.616;9.548;2024-03-06T02:03:09;96945.41;;;5.60;100.00
9139;BME280;4604;48.616;9.548;2024-03-06T02:05:36;96947.09;;;5.61;100.00
9139;BME280;4604;48.616;9.548;2024-03-06T02:08:04;96939.34;;;5.59;100.00
9139;BME280;4604;48.616;9.548;2024-03-06T02:10:34;96941.13;;;5.58;100.00
9139;BME280;4604;48.616;9.548;2024-03-06T02:13:01;96945.50;;;5.58;100.00
9139;BME280;4604;48.616;9.548;2024-03-06T02:15:28;96944.59;;;5.59;100.00
9139;BME280;4604;48.616;9.548;2024-03-06T02:17:55;96942.81;;;5.60;100.00
9139;BME280;4604;48.616;9.548;2024-03-06T02:20:24;96935.78;;;5.60;100.00
9139;BME280;4604;48.616;9.548;2024-03-06T02:22:50;96929.63;;;5.61;100.00
9139;BME280;4604;48.616;9.548;2024-03-06T02:25:17;96882.03;;;5.30;100.00
9139;BME280;4604;48.616;9.548;2024-03-06T02:27:45;96931.72;;;5.56;100.00
9139;BME280;4604;48.616;9.548;2024-03-06T02:30:13;96932.03;;;5.51;100.00
9139;BME280;4604;48.616;9.548;2024-03-06T02:32:40;96898.47;;;5.32;100.00
9139;BME280;4604;48.616;9.548;2024-03-06T02:35:09;96939.69;;;5.54;100.00
9139;BME280;4604;48.616;9.548;2024-03-06T02:37:37;96930.25;;;5.52;100.00
9139;BME280;4604;48.616;9.548;2024-03-06T02:40:05;96945.66;;;5.56;100.00
9139;BME280;4604;48.616;9.548;2024-03-06T02:42:35;96924.72;;;5.44;100.00
9139;BME280;4604;48.616;9.548;2024-03-06T02:45:03;96946.56;;;5.55;100.00
9139;BME280;4604;48.616;9.548;2024-03-06T02:47:29;96940.50;;;5.55;100.00
9139;BME280;4604;48.616;9.548;2024-03-06T02:49:56;96940.50;;;5.55;100.00
9139;BME280;4604;48.616;9.548;2024-03-06T02:52:23;96906.09;;;5.35;100.00
9139;BME280;4604;48.616;9.548;2024-03-06T02:54:51;96938.84;;;5.54;100.00
9139;BME280;4604;48.616;9.548;2024-03-06T02:57:20;96861.88;;;5.07;100.00
9139;BME280;4604;48.616;9.548;2024-03-06T02:59:49;96906.59;;;5.41;100.00
9139;BME280;4604;48.616;9.548;2024-03-06T03:02:22;96911.09;;;5.39;100.00
9139;BME280;4604;48.616;9.548;2024-03-06T03:04:57;96866.59;;;5.14;100.00
9139;BME280;4604;48.616;9.548;2024-03-06T03:07:30;96864.16;;;5.11;100.00
9139;BME280;4604;48.616;9.548;2024-03-06T03:10:05;96867.59;;;5.12;100.00
9139;BME280;4604;48.616;9.548;2024-03-06T03:12:33;96866.78;;;5.11;100.00
9139;BME280;4604;48.616;9.548;2024-03-06T03:15:00;96867.97;;;5.07;100.00
9139;BME280;4604;48.616;9.548;2024-03-06T03:17:41;96894.09;;;5.20;100.00
9139;BME280;4604;48.616;9.548;2024-03-06T03:20:08;96906.41;;;5.31;100.00
9139;BME280;4604;48.616;9.548;2024-03-06T03:22:48;96877.97;;;5.13;100.00
9139;BME280;4604;48.616;9.548;2024-03-06T03:25:36;96891.16;;;5.25;100.00
9139;BME280;4604;48.616;9.548;2024-03-06T03:28:04;96944.59;;;5.59;100.00
9139;BME280;4604;48.616;9.548;2024-03-06T03:30:33;96873.69;;;5.12;100.00
9139;BME280;4604;48.616;9.548;2024-03-06T03:33:07;96923.88;;;5.43;100.00
9139;BME280;4604;48.616;9.548;2024-03-06T03:35:37;96954.22;;;5.58;100.00
9139;BME280;4604;48.616;9.548;2024-03-06T03:38:04;96947.31;;;5.57;100.00
9139;BME280;4604;48.616;9.548;2024-03-06T03:40:36;96955.91;;;5.60;100.00
9139;BME280;4604;48.616;9.548;2024-03-06T03:43:03;96894.50;;;5.27;100.00
9139;BME280;4604;48.616;9.548;2024-03-06T03:45:36;96950.66;;;5.60;100.00
9139;BME280;4604;48.616;9.548;2024-03-06T03:48:05;96954.31;;;5.57;100.00
9139;BME280;4604;48.616;9.548;2024-03-06T03:50:32;96956.22;;;5.55;100.00
9139;BME280;4604;48.616;9.548;2024-03-06T03:52:58;96956.13;;;5.56;100.00
9139;BME280;4604;48.616;9.548;2024-03-06T03:55:26;96932.38;;;5.47;100.00
9139;BME280;4604;48.616;9.548;2024-03-06T03:57:54;96962.09;;;5.58;100.00
9139;BME280;4604;48.616;9.548;2024-03-06T04:00:22;96969.72;;;5.62;100.00
9139;BME280;4604;48.616;9.548;2024-03-06T04:02:49;96959.34;;;5.60;100.00
9139;BME280;4604;48.616;9.548;2024-03-06T04:05:15;96971.38;;;5.63;100.00
9139;BME280;4604;48.616;9.548;2024-03-06T04:07:42;96966.03;;;5.64;100.00
9139;BME280;4604;48.616;9.548;2024-03-06T04:10:10;96973.06;;;5.64;100.00
9139;BME280;4604;48.616;9.548;2024-03-06T04:12:45;96973.16;;;5.62;100.00
9139;BME280;4604;48.616;9.548;2024-03-06T04:15:15;96943.03;;;5.44;100.00
9139;BME280;4604;48.616;9.548;2024-03-06T04:17:47;96894.72;;;5.11;100.00
9139;BME280;4604;48.616;9.548;2024-03-06T04:20:14;96939.19;;;5.36;100.00
9139;BME280;4604;48.616;9.548;2024-03-06T04:22:43;96896.09;;;5.04;100.00
9139;BME280;4604;48.616;9.548;2024-03-06T04:25:18;96930.72;;;5.20;100.00
9139;BME280;4604;48.616;9.548;2024-03-06T04:27:45;96918.19;;;5.12;100.00
9139;BME280;4604;48.616;9.548;2024-03-06T04:30:13;96943.34;;;5.26;100.00
9139;BME280;4604;48.616;9.548;2024-03-06T04:32:40;96978.09;;;5.41;100.00
9139;BME280;4604;48.616;9.548;2024-03-06T04:35:07;96961.16;;;5.34;100.00
9139;BME280;4604;48.616;9.548;2024-03-06T04:37:35;96987.31;;;5.47;100.00
9139;BME280;4604;48.616;9.548;2024-03-06T04:40:03;96969.63;;;5.38;100.00
9139;BME280;4604;48.616;9.548;2024-03-06T04:42:33;96995.78;;;5.50;100.00
9139;BME280;4604;48.616;9.548;2024-03-06T04:45:01;96971.09;;;5.29;100.00
9139;BME280;4604;48.616;9.548;2024-03-06T04:47:29;96950.19;;;5.16;100.00
9139;BME280;4604;48.616;9.548;2024-03-06T04:49:56;96922.34;;;4.89;100.00
9139;BME280;4604;48.616;9.548;2024-03-06T04:52:24;96999.69;;;5.32;100.00
9139;BME280;4604;48.616;9.548;2024-03-06T04:54:50;96962.81;;;5.09;100.00
9139;BME280;4604;48.616;9.548;2024-03-06T04:57:20;96934.28;;;4.93;100.00
9139;BME280;4604;48.616;9.548;2024-03-06T04:59:47;96942.13;;;4.93;100.00
9139;BME280;4604;48.616;9.548;2024-03-06T05:02:25;96966.63;;;5.05;100.00
9139;BME280;4604;48.616;9.548;2024-03-06T05:05:08;97012.47;;;5.36;100.00
9139;BME280;4604;48.616;9.548;2024-03-06T05:07:38;96983.66;;;5.11;100.00
9139;BME280;4604;48.616;9.548;2024-03-06T05:10:06;96994.03;;;5.25;100.00
9139;BME280;4604;48.616;9.548;2024-03-06T05:12:34;97030.13;;;5.33;100.00
9139;BME280;4604;48.616;9.548;2024-03-06T05:15:01;97021.25;;;5.35;100.00
9139;BME280;4604;48.616;9.548;2024-03-06T05:17:27;97028.25;;;5.35;100.00
9139;BME280;4604;48.616;9.548;2024-03-06T05:19:54;97027.22;;;5.38;100.00
9139;BME280;4604;48.616;9.548;2024-03-06T05:22:22;97027.75;;;5.30;100.00
9139;BME280;4604;48.616;9.548;2024-03-06T05:24:49;97032.63;;;5.22;100.00
9139;BME280;4604;48.616;9.548;2024-03-06T05:27:15;97032.97;;;5.17;100.00
9139;BME280;4604;48.616;9.548;2024-03-06T05:29:43;97029.72;;;5.26;100.00
9139;BME280;4604;48.616;9.548;2024-03-06T05:32:09;97023.22;;;5.19;100.00
9139;BME280;4604;48.616;9.548;2024-03-06T05:34:36;97023.03;;;5.22;100.00
9139;BME280;4604;48.616;9.548;2024-03-06T05:37:03;97035.38;;;5.20;100.00
9139;BME280;4604;48.616;9.548;2024-03-06T05:39:33;97043.31;;;5.19;100.00
9139;BME280;4604;48.616;9.548;2024-03-06T05:42:01;97050.25;;;5.20;100.00
9139;BME280;4604;48.616;9.548;2024-03-06T05:44:29;97046.13;;;5.15;100.00
9139;BME280;4604;48.616;9.548;2024-03-06T05:46:55;97057.97;;;5.21;100.00
9139;BME280;4604;48.616;9.548;2024-03-06T05:49:22;97041.22;;;5.24;100.00
9139;BME280;4604;48.616;9.548;2024-03-06T05:51:49;97057.66;;;5.26;100.00
9139;BME280;4604;48.616;9.548;2024-03-06T05:54:16;97063.31;;;5.32;100.00
9139;BME280;4604;48.616;9.548;2024-03-06T05:56:44;97050.63;;;5.26;100.00
9139;BME280;4604;48.616;9.548;2024-03-06T05:59:10;97064.97;;;5.21;100.00
9139;BME280;4604;48.616;9.548;2024-03-06T06:01:37;97064.97;;;5.21;100.00
9139;BME280;4604;48.616;9.548;2024-03-06T06:04:04;97068.03;;;5.27;100.00
9139;BME280;4604;48.616;9.548;2024-03-06T06:06:31;97071.56;;;5.26;100.00
9139;BME280;4604;48.616;9.548;2024-03-06T06:08:58;97075.97;;;5.26;100.00
9139;BME280;4604;48.616;9.548;2024-03-06T06:11:25;97077.09;;;5.22;100.00
9139;BME280;4604;48.616;9.548;2024-03-06T06:13:53;97067.06;;;5.15;100.00
9139;BME280;4604;48.616;9.548;2024-03-06T06:16:19;97079.72;;;5.22;100.00
9139;BME280;4604;48.616;9.548;2024-03-06T06:18:46;97067.59;;;5.21;100.00
9139;BME280;4604;48.616;9.548;2024-03-06T06:21:16;97082.25;;;5.23;100.00
9139;BME280;4604;48.616;9.548;2024-03-06T06:23:43;97086.00;;;5.19;100.00
9139;BME280;4604;48.616;9.548;2024-03-06T06:26:10;97087.47;;;5.23;100.00
9139;BME280;4604;48.616;9.548;2024-03-06T06:28:37;97084.66;;;5.26;100.00
9139;BME280;4604;48.616;9.548;2024-03-06T06:31:05;97088.75;;;5.30;100.00
9139;BME280;4604;48.616;9.548;2024-03-06T06:33:31;97094.41;;;5.37;100.00
9139;BME280;4604;48.616;9.548;2024-03-06T06:35:59;97084.25;;;5.32;100.00
9139;BME280;4604;48.616;9.548;2024-03-06T06:38:25;97094.59;;;5.21;100.00
9139;BME280;4604;48.616;9.548;2024-03-06T06:40:52;97100.47;;;5.25;100.00
9139;BME280;4604;48.616;9.548;2024-03-06T06:43:19;97106.94;;;5.19;100.00
9139;BME280;4604;48.616;9.548;2024-03-06T06:45:45;97089.44;;;5.07;100.00
9139;BME280;4604;48.616;9.548;2024-03-06T06:48:13;97097.81;;;5.12;100.00
9139;BME280;4604;48.616;9.548;2024-03-06T06:50:40;97099.47;;;5.00;100.00
9139;BME280;4604;48.616;9.548;2024-03-06T06:53:06;97080.72;;;4.93;100.00
9139;BME280;4604;48.616;9.548;2024-03-06T06:55:33;97098.03;;;5.09;100.00
9139;BME280;4604;48.616;9.548;2024-03-06T06:58:01;97108.53;;;4.94;100.00
9139;BME280;4604;48.616;9.548;2024-03-06T07:00:28;97089.50;;;4.92;100.00
9139;BME280;4604;48.616;9.548;2024-03-06T07:02:55;97106.66;;;4.97;100.00
9139;BME280;4604;48.616;9.548;2024-03-06T07:05:25;97110.41;;;4.92;100.00
9139;BME280;4604;48.616;9.548;2024-03-06T07:07:51;97111.28;;;4.93;100.00
9139;BME280;4604;48.616;9.548;2024-03-06T07:10:18;97097.97;;;4.83;100.00
9139;BME280;4604;48.616;9.548;2024-03-06T07:12:45;97101.44;;;4.97;100.00
9139;BME280;4604;48.616;9.548;2024-03-06T07:15:12;97110.84;;;4.99;100.00
9139;BME280;4604;48.616;9.548;2024-03-06T07:17:39;97114.22;;;5.01;100.00
9139;BME280;4604;48.616;9.548;2024-03-06T07:20:06;97075.84;;;4.75;100.00
9139;BME280;4604;48.616;9.548;2024-03-06T07:22:35;97119.13;;;4.93;100.00
9139;BME280;4604;48.616;9.548;2024-03-06T07:25:02;97101.16;;;4.74;100.00
9139;BME280;4604;48.616;9.548;2024-03-06T07:27:30;97108.00;;;4.89;100.00
9139;BME280;4604;48.616;9.548;2024-03-06T07:29:57;97124.34;;;4.93;100.00
9139;BME280;4604;48.616;9.548;2024-03-06T07:32:24;97128.09;;;4.89;100.00
9139;BME280;4604;48.616;9.548;2024-03-06T07:34:50;97115.25;;;4.99;100.00
9139;BME280;4604;48.616;9.548;2024-03-06T07:37:17;97086.97;;;4.78;100.00
9139;BME280;4604;48.616;9.548;2024-03-06T07:39:46;97113.88;;;4.93;100.00
9139;BME280;4604;48.616;9.548;2024-03-06T07:42:13;97127.38;;;5.00;100.00
9139;BME280;4604;48.616;9.548;2024-03-06T07:44:40;97137.97;;;4.98;100.00
9139;BME280;4604;48.616;9.548;2024-03-06T07:47:07;97130.41;;;4.93;100.00
9139;BME280;4604;48.616;9.548;2024-03-06T07:49:34;97111.88;;;4.84;100.00
9139;BME280;4604;48.616;9.548;2024-03-06T07:52:01;97110.63;;;4.89;100.00
9139;BME280;4604;48.616;9.548;2024-03-06T07:54:27;97120.44;;;4.86;100.00
9139;BME280;4604;48.616;9.548;2024-03-06T07:56:55;97148.75;;;5.06;100.00
9139;BME280;4604;48.616;9.548;2024-03-06T07:59:22;97151.50;;;5.05;100.00
9139;BME280;4604;48.616;9.548;2024-03-06T08:01:49;97147.47;;;4.99;100.00
9139;BME280;4604;48.616;9.548;2024-03-06T08:04:15;97149.50;;;5.08;100.00
9139;BME280;4604;48.616;9.548;2024-03-06T08:06:42;97150.44;;;5.07;100.00
9139;BME280;4604;48.616;9.548;2024-03-06T08:09:09;97152.31;;;5.05;100.00
9139;BME280;4604;48.616;9.548;2024-03-06T08:11:36;97142.69;;;5.06;100.00
9139;BME280;4604;48.616;9.548;2024-03-06T08:14:06;97146.88;;;5.08;100.00
9139;BME280;4604;48.616;9.548;2024-03-06T08:16:32;97157.66;;;5.04;100.00
9139;BME280;4604;48.616;9.548;2024-03-06T08:18:59;97149.72;;;5.05;100.00
9139;BME280;4604;48.616;9.548;2024-03-06T08:21:26;97138.78;;;4.99;100.00
9139;BME280;4604;48.616;9.548;2024-03-06T08:23:53;97154.34;;;5.14;100.00
9139;BME280;4604;48.616;9.548;2024-03-06T08:26:20;97145.00;;;5.10;100.00
9139;BME280;4604;48.616;9.548;2024-03-06T08:28:46;97159.16;;;5.21;100.00
9139;BME280;4604;48.616;9.548;2024-03-06T08:31:15;97154.34;;;5.14;100.00
9139;BME280;4604;48.616;9.548;2024-03-06T08:33:42;97162.91;;;5.17;100.00
9139;BME280;4604;48.616;9.548;2024-03-06T08:36:09;97136.72;;;5.04;100.00
9139;BME280;4604;48.616;9.548;2024-03-06T08:38:36;97166.81;;;5.24;100.00
9139;BME280;4604;48.616;9.548;2024-03-06T08:41:03;97154.53;;;5.11;100.00
9139;BME280;4604;48.616;9.548;2024-03-06T08:43:31;97164.41;;;5.21;100.00
9139;BME280;4604;48.616;9.548;2024-03-06T08:45:57;97164.81;;;5.14;100.00
9139;BME280;4604;48.616;9.548;2024-03-06T08:48:25;97172.69;;;5.27;100.00
9139;BME280;4604;48.616;9.548;2024-03-06T08:50:52;97170.28;;;5.24;100.00
9139;BME280;4604;48.616;9.548;2024-03-06T08:53:19;97175.59;;;5.23;100.00
9139;BME280;4604;48.616;9.548;2024-03-06T08:55:46;97174.66;;;5.24;100.00
9139;BME280;4604;48.616;9.548;2024-03-06T08:58:13;97179.25;;;5.20;100.00
9139;BME280;4604;48.616;9.548;2024-03-06T09:00:40;97169.09;;;5.15;100.00
9139;BME280;4604;48.616;9.548;2024-03-06T09:03:07;97170.06;;;5.27;100.00
9139;BME280;4604;48.616;9.548;2024-03-06T09:05:35;97177.72;;;5.30;100.00
9139;BME280;4604;48.616;9.548;2024-03-06T09:08:01;97152.34;;;5.18;100.00
9139;BME280;4604;48.616;9.548;2024-03-06T09:10:28;97187.81;;;5.36;100.00
9139;BME280;4604;48.616;9.548;2024-03-06T09:12:54;97187.25;;;5.31;100.00
9139;BME280;4604;48.616;9.548;2024-03-06T09:15:21;97176.53;;;5.22;100.00
9139;BME280;4604;48.616;9.548;2024-03-06T09:17:48;97195.59;;;5.24;100.00
9139;BME280;4604;48.616;9.548;2024-03-06T09:20:15;97188.91;;;5.20;100.00
9139;BME280;4604;48.616;9.548;2024-03-06T09:22:43;97192.69;;;5.28;100.00
9139;BME280;4604;48.616;9.548;2024-03-06T09:25:11;97192.38;;;5.33;100.00
9139;BME280;4604;48.616;9.548;2024-03-06T09:27:39;97200.44;;;5.30;100.00
9139;BME280;4604;48.616;9.548;2024-03-06T09:30:06;97194.56;;;5.26;100.00
9139;BME280;4604;48.616;9.548;2024-03-06T09:32:34;97202.53;;;5.25;100.00
9139;BME280;4604;48.616;9.548;2024-03-06T09:35:00;97208.91;;;5.33;100.00
9139;BME280;4604;48.616;9.548;2024-03-06T09:37:27;97195.94;;;5.32;100.00
9139;BME280;4604;48.616;9.548;2024-03-06T09:39:55;97219.53;;;5.45;100.00
9139;BME280;4604;48.616;9.548;2024-03-06T09:42:22;97214.28;;;5.32;100.00
9139;BME280;4604;48.616;9.548;2024-03-06T09:44:50;97197.31;;;5.38;100.00
9139;BME280;4604;48.616;9.548;2024-03-06T09:47:20;97206.78;;;5.53;100.00
9139;BME280;4604;48.616;9.548;2024-03-06T09:49:48;97219.88;;;5.53;100.00
9139;BME280;4604;48.616;9.548;2024-03-06T09:52:16;97212.31;;;5.48;100.00
9139;BME280;4604;48.616;9.548;2024-03-06T09:54:43;97179.09;;;5.36;100.00
9139;BME280;4604;48.616;9.548;2024-03-06T09:57:11;97215.81;;;5.62;100.00
9139;BME280;4604;48.616;9.548;2024-03-06T09:59:40;97216.03;;;5.58;100.00
9139;BME280;4604;48.616;9.548;2024-03-06T10:02:18;97202.28;;;5.55;100.00
9139;BME280;4604;48.616;9.548;2024-03-06T10:04:45;97186.56;;;5.42;100.00
9139;BME280;4604;48.616;9.548;2024-03-06T10:07:13;97220.84;;;5.77;100.00
9139;BME280;4604;48.616;9.548;2024-03-06T10:09:40;97218.06;;;5.81;100.00
9139;BME280;4604;48.616;9.548;2024-03-06T10:12:06;97223.91;;;5.71;100.00
9139;BME280;4604;48.616;9.548;2024-03-06T10:14:35;97225.25;;;5.77;100.00
9139;BME280;4604;48.616;9.548;2024-03-06T10:17:02;97225.34;;;5.75;100.00
9139;BME280;4604;48.616;9.548;2024-03-06T10:19:29;97211.72;;;5.70;100.00
9139;BME280;4604;48.616;9.548;2024-03-06T10:21:57;97222.25;;;5.83;100.00
9139;BME280;4604;48.616;9.548;2024-03-06T10:24:25;97231.47;;;5.89;100.00
9139;BME280;4604;48.616;9.548;2024-03-06T10:26:52;97229.81;;;5.88;100.00
9139;BME280;4604;48.616;9.548;2024-03-06T10:29:22;97220.84;;;5.77;100.00
9139;BME280;4604;48.616;9.548;2024-03-06T10:31:52;97226.97;;;5.91;100.00
9139;BME280;4604;48.616;9.548;2024-03-06T10:34:20;97220.41;;;5.98;100.00
9139;BME280;4604;48.616;9.548;2024-03-06T10:36:52;97229.81;;;5.88;100.00
9139;BME280;4604;48.616;9.548;2024-03-06T10:39:20;97222.97;;;5.85;100.00
9139;BME280;4604;48.616;9.548;2024-03-06T10:41:51;97220.41;;;5.98;100.00
9139;BME280;4604;48.616;9.548;2024-03-06T10:44:20;97198.25;;;5.89;100.00
9139;BME280;4604;48.616;9.548;2024-03-06T10:46:54;97230.69;;;6.14;100.00
9139;BME280;4604;48.616;9.548;2024-03-06T10:49:23;97228.72;;;6.17;100.00
9139;BME280;4604;48.616;9.548;2024-03-06T10:51:51;97224.31;;;6.05;100.00
9139;BME280;4604;48.616;9.548;2024-03-06T10:54:19;97227.00;;;6.04;100.00
9139;BME280;4604;48.616;9.548;2024-03-06T10:56:47;97217.22;;;5.93;100.00
9139;BME280;4604;48.616;9.548;2024-03-06T10:59:14;97233.69;;;5.95;100.00
9139;BME280;4604;48.616;9.548;2024-03-06T11:01:44;97232.59;;;5.85;100.00
9139;BME280;4604;48.616;9.548;2024-03-06T11:04:13;97228.75;;;5.90;100.00
9139;BME280;4604;48.616;9.548;2024-03-06T11:06:40;97206.41;;;5.72;100.00
9139;BME280;4604;48.616;9.548;2024-03-06T11:09:07;97243.19;;;5.83;100.00
9139;BME280;4604;48.616;9.548;2024-03-06T11:11:48;97221.66;;;5.65;100.00
9139;BME280;4604;48.616;9.548;2024-03-06T11:14:14;97232.06;;;5.79;100.00
9139;BME280;4604;48.616;9.548;2024-03-06T11:17:00;97234.31;;;5.86;100.00
9139;BME280;4604;48.616;9.548;2024-03-06T11:19:29;97228.94;;;5.87;100.00
9139;BME280;4604;48.616;9.548;2024-03-06T11:21:56;97235.03;;;5.88;100.00
9139;BME280;4604;48.616;9.548;2024-03-06T11:24:24;97233.88;;;5.79;100.00
9139;BME280;4604;48.616;9.548;2024-03-06T11:26:59;97237.44;;;5.78;100.00
9139;BME280;4604;48.616;9.548;2024-03-06T11:29:28;97238.69;;;5.85;100.00
9139;BME280;4604;48.616;9.548;2024-03-06T11:32:03;97236.78;;;5.87;100.00
9139;BME280;4604;48.616;9.548;2024-03-06T11:34:34;97235.66;;;5.91;100.00
9139;BME280;4604;48.616;9.548;2024-03-06T11:37:04;97167.19;;;5.45;100.00
9139;BME280;4604;48.616;9.548;2024-03-06T11:39:33;97238.94;;;5.95;100.00
9139;BME280;4604;48.616;9.548;2024-03-06T11:42:02;97232.09;;;5.92;100.00
9139;BME280;4604;48.616;9.548;2024-03-06T11:44:31;97247.66;;;5.95;100.00
9139;BME280;4604;48.616;9.548;2024-03-06T11:46:59;97229.59;;;5.91;100.00
9139;BME280;4604;48.616;9.548;2024-03-06T11:49:27;97236.13;;;5.98;100.00
9139;BME280;4604;48.616;9.548;2024-03-06T11:52:00;97228.16;;;5.99;100.00
9139;BME280;4604;48.616;9.548;2024-03-06T11:54:27;97221.34;;;5.97;100.00
9139;BME280;4604;48.616;9.548;2024-03-06T11:56:56;97237.69;;;6.00;100.00
9139;BME280;4604;48.616;9.548;2024-03-06T11:59:23;97221.91;;;5.75;100.00
9139;BME280;4604;48.616;9.548;2024-03-06T12:01:50;97238.69;;;5.85;100.00
9139;BME280;4604;48.616;9.548;2024-03-06T12:04:18;97236.28;;;5.82;100.00
9139;BME280;4604;48.616;9.548;2024-03-06T12:06:45;97237.09;;;5.83;100.00
9139;BME280;4604;48.616;9.548;2024-03-06T12:09:14;97202.50;;;5.65;100.00
9139;BME280;4604;48.616;9.548;2024-03-06T12:11:41;97241.50;;;5.82;100.00
9139;BME280;4604;48.616;9.548;2024-03-06T12:14:13;97235.75;;;5.90;100.00
9139;BME280;4604;48.616;9.548;2024-03-06T12:16:39;97237.97;;;5.83;100.00
9139;BME280;4604;48.616;9.548;2024-03-06T12:19:06;97230.81;;;5.85;100.00
9139;BME280;4604;48.616;9.548;2024-03-06T12:21:34;97222.97;;;5.85;100.00
9139;BME280;4604;48.616;9.548;2024-03-06T12:24:03;97240.63;;;5.96;100.00
9139;BME280;4604;48.616;9.548;2024-03-06T12:26:32;97229.22;;;5.70;100.00
9139;BME280;4604;48.616;9.548;2024-03-06T12:29:06;97227.25;;;5.73;100.00
9139;BME280;4604;48.616;9.548;2024-03-06T12:31:35;97213.00;;;5.65;100.00
9139;BME280;4604;48.616;9.548;2024-03-06T12:34:02;97233.22;;;5.75;100.00
9139;BME280;4604;48.616;9.548;2024-03-06T12:36:29;97237.44;;;5.78;100.00
9139;BME280;4604;48.616;9.548;2024-03-06T12:38:56;97233.88;;;5.79;100.00
9139;BME280;4604;48.616;9.548;2024-03-06T12:41:25;97224.28;;;5.65;100.00
9139;BME280;4604;48.616;9.548;2024-03-06T12:43:54;97208.88;;;5.61;100.00
9139;BME280;4604;48.616;9.548;2024-03-06T12:46:22;97229.16;;;5.84;100.00
9139;BME280;4604;48.616;9.548;2024-03-06T12:48:49;97234.38;;;5.84;100.00
9139;BME280;4604;48.616;9.548;2024-03-06T12:51:15;97222.19;;;5.70;100.00
9139;BME280;4604;48.616;9.548;2024-03-06T12:53:42;97237.00;;;5.84;100.00
9139;BME280;4604;48.616;9.548;2024-03-06T12:56:09;97228.41;;;5.82;100.00
9139;BME280;4604;48.616;9.548;2024-03-06T12:58:36;97234.09;;;5.89;100.00
9139;BME280;4604;48.616;9.548;2024-03-06T13:01:04;97237.84;;;5.85;100.00
9139;BME280;4604;48.616;9.548;2024-03-06T13:03:31;97232.72;;;5.83;100.00
9139;BME280;4604;48.616;9.548;2024-03-06T13:05:59;97236.06;;;5.85;100.00
9139;BME280;4604;48.616;9.548;2024-03-06T13:08:25;97229.69;;;5.89;100.00
9139;BME280;4604;48.616;9.548;2024-03-06T13:10:53;97228.19;;;5.85;100.00
9139;BME280;4604;48.616;9.548;2024-03-06T13:13:19;97232.31;;;5.89;100.00
9139;BME280;4604;48.616;9.548;2024-03-06T13:15:49;97225.59;;;5.85;100.00
9139;BME280;4604;48.616;9.548;2024-03-06T13:18:17;97218.72;;;5.97;100.00
9139;BME280;4604;48.616;9.548;2024-03-06T13:20:44;97223.56;;;6.03;100.00
9139;BME280;4604;48.616;9.548;2024-03-06T13:23:11;97224.38;;;6.04;100.00
9139;BME280;4604;48.616;9.548;2024-03-06T13:25:38;97225.00;;;5.94;100.00
9139;BME280;4604;48.616;9.548;2024-03-06T13:28:05;97221.47;;;5.95;100.00
9139;BME280;4604;48.616;9.548;2024-03-06T13:30:32;97215.44;;;5.93;100.00
9139;BME280;4604;48.616;9.548;2024-03-06T13:32:59;97224.66;;;5.86;100.00
9139;BME280;4604;48.616;9.548;2024-03-06T13:35:27;97220.34;;;5.85;100.00
9139;BME280;4604;48.616;9.548;2024-03-06T13:37:54;97216.38;;;5.92;100.00
9139;BME280;4604;48.616;9.548;2024-03-06T13:40:20;97217.16;;;5.94;100.00